Northern Highway — 3EVE6 — position and weather

sailwx.info

Track history (hours):
 
Tides and Currents Weather Stations Pressure Air Temp Water Temp Dewpoint Dewpoint Depression Visibility Wind Speed Wind Dir Waves Ship Positions

Northern Highway

Last reported at 2015-Feb-06 07:13 UTC. Time now 2015-Mar-02 15:07 UTC.
Position N 22°02' E 114°20'.
Warning: this ship's position is 24 days out of date.

Length 188 m; draft 6.7 m.

Type: Cargo ship. MMSI: 371608000.

Date/timePositionNaut miles runAvg speedWind from/ knotsBaromVisibWave heightAir tempDewpointWater temp
2015-Feb-06 07:13N 22°02' E 114°20'1413.4
2015-Feb-06 06:09N 22°12' E 114°10'5 0.9
2015-Feb-06 00:13N 22°15' E 114°06'2 0.7
2015-Feb-05 21:33N 22°17' E 114°06'3 3.1
2015-Feb-05 20:29N 22°20' E 114°07'0 0.0
2015-Feb-05 19:20N 22°20' E 114°07'0 0.0
2015-Feb-05 18:32N 22°20' E 114°07'1 1.0
2015-Feb-05 17:34N 22°19' E 114°07'13 9.9
2015-Feb-05 16:17N 22°08' E 114°14'3 3.9
2015-Feb-05 15:32N 22°06' E 114°13'20 6.2
2015-Feb-05 12:20N 22°03' E 113°52'911.5
2015-Feb-05 11:33N 22°11' E 113°47'1413.4
2015-Feb-05 10:33N 22°24' E 113°46'1414.2
2015-Feb-05 09:33N 22°38' E 113°42'1111.3
2015-Feb-05 08:33N 22°48' E 113°37'1010.1
2015-Feb-05 07:33N 22°58' E 113°33'3 3.4
2015-Feb-05 06:31N 23°01' E 113°32'0 0.0
2015-Feb-05 05:31N 23°01' E 113°32'0 0.0
2015-Feb-05 04:31N 23°01' E 113°32'0 0.0
2015-Feb-05 03:25N 23°01' E 113°32'0 0.0
2015-Feb-05 02:25N 23°01' E 113°32'0 0.0
2015-Feb-05 01:19N 23°01' E 113°32'0 0.0
2015-Feb-05 00:31N 23°01' E 113°32'0 0.0
2015-Feb-04 23:25N 23°01' E 113°32'0 0.0
2015-Feb-04 22:31N 23°01' E 113°32'0 0.0
2015-Feb-04 21:31N 23°01' E 113°32'4 4.4
2015-Feb-04 20:33N 22°57' E 113°33'10 9.4
2015-Feb-04 19:33N 22°48' E 113°37'1411.2
2015-Feb-04 18:16N 22°35' E 113°43'1115.0
2015-Feb-04 17:33N 22°24' E 113°46'1414.4
2015-Feb-04 16:33N 22°11' E 113°50'6 5.8
2015-Feb-04 15:33N 22°05' E 113°53'1 0.8
2015-Feb-04 14:33N 22°05' E 113°54'0 0.0
2015-Feb-04 13:33N 22°05' E 113°54'0 0.0
2015-Feb-04 12:33N 22°05' E 113°54'0 0.0
2015-Feb-04 11:21N 22°05' E 113°54'0 0.0
2015-Feb-04 10:09N 22°05' E 113°54'0 0.0
2015-Feb-04 09:33N 22°05' E 113°54'0 0.0
2015-Feb-04 08:33N 22°05' E 113°54'4 4.3
2015-Feb-04 07:33N 22°01' E 113°54'16716.5
2015-Feb-03 21:26N 22°46' E 116°48'52116.7
2015-Feb-02 14:16N 29°33' E 122°50'1816.2
2015-Feb-02 13:08N 29°50' E 122°53'4115.6
2015-Feb-02 10:32N 30°31' E 122°60'1616.2
2015-Feb-02 09:33N 30°46' E 122°58'2914.5
2015-Feb-02 07:33N 31°05' E 122°32'1313.5
2015-Feb-02 06:33N 31°07' E 122°16'1514.5
2015-Feb-02 05:33N 31°14' E 122°01'1313.0
2015-Feb-02 04:33N 31°18' E 121°47'7 7.2
2015-Feb-02 03:32N 31°21' E 121°39'0 0.0
2015-Feb-02 02:32N 31°21' E 121°39'0 0.0
2015-Feb-02 01:32N 31°21' E 121°39'0 0.0
2015-Feb-02 00:32N 31°21' E 121°39'0 0.0
2015-Feb-01 23:32N 31°21' E 121°39'0 0.0
2015-Feb-01 22:32N 31°21' E 121°39'0 0.0
2015-Feb-01 21:32N 31°21' E 121°39'0 0.0
2015-Feb-01 20:29N 31°21' E 121°39'0 0.0
2015-Feb-01 19:32N 31°21' E 121°39'0 0.0
2015-Feb-01 18:32N 31°21' E 121°39'0 0.0
2015-Feb-01 17:32N 31°21' E 121°39'0 0.0
2015-Feb-01 16:32N 31°21' E 121°39'0 0.1
2015-Feb-01 15:33N 31°21' E 121°39'5 5.0
2015-Feb-01 14:33N 31°19' E 121°44'1010.0
2015-Feb-01 13:33N 31°16' E 121°55'1010.1
2015-Feb-01 12:33N 31°13' E 122°07'10 9.7
2015-Feb-01 11:33N 31°08' E 122°16'8 8.3
2015-Feb-01 10:33N 31°06' E 122°26'34510.8
2015-Jan-31 02:32N 36°51' E 122°43'4217.3
2015-Jan-31 00:08N 37°32' E 122°40'1117.8
2015-Jan-30 23:32N 37°39' E 122°30'1717.1
2015-Jan-30 22:32N 37°48' E 122°12'19915.1
2015-Jan-30 09:22N 38°51' E 118°11'1012.2
2015-Jan-30 08:33N 38°56' E 118°00'1110.7
2015-Jan-30 07:33N 38°59' E 117°47'0 0.3
2015-Jan-30 06:31N 38°59' E 117°47'0 0.0
2015-Jan-30 05:31N 38°59' E 117°47'0 0.0
2015-Jan-30 04:31N 38°59' E 117°47'0 0.0
2015-Jan-30 03:31N 38°59' E 117°47'0 0.0
2015-Jan-30 02:25N 38°59' E 117°47'0 0.0
2015-Jan-30 01:31N 38°59' E 117°47'0 0.0
2015-Jan-30 00:31N 38°59' E 117°47'0 0.0
2015-Jan-29 23:31N 38°59' E 117°47'0 0.2
2015-Jan-29 22:33N 38°59' E 117°47'1010.3
2015-Jan-29 21:34N 38°57' E 117°60'5 4.6
2015-Jan-29 20:29N 38°58' E 118°06'0 0.1
2015-Jan-29 19:33N 38°58' E 118°06'10 9.1
2015-Jan-29 18:27N 38°51' E 118°16'15315.4
2015-Jan-29 08:32N 38°20' E 121°27'6516.2
2015-Jan-29 04:33N 37°44' E 122°36'45114.0
2015-Jan-27 20:20N 34°03' E 130°42'  
Track history (hours):
 
Tides and Currents Weather Stations Pressure Air Temp Water Temp Dewpoint Dewpoint Depression Visibility Wind Speed Wind Dir Waves Ship Positions

Northern Highway

Last reported at 2015-Feb-06 07:13 UTC. Time now 2015-Mar-02 15:07 UTC.
Position N 22°02' E 114°20'.
Warning: this ship's position is 24 days out of date.

Length 188 m; draft 6.7 m.

Type: Cargo ship. MMSI: 371608000.

Date/timePositionNaut miles runAvg speedWind from/ knotsBaromVisibWave heightAir tempDewpointWater temp
2015-Feb-06 07:13N 22°02' E 114°20'1413.4
2015-Feb-06 06:09N 22°12' E 114°10'5 0.9
2015-Feb-06 00:13N 22°15' E 114°06'2 0.7
2015-Feb-05 21:33N 22°17' E 114°06'3 3.1
2015-Feb-05 20:29N 22°20' E 114°07'0 0.0
2015-Feb-05 19:20N 22°20' E 114°07'0 0.0
2015-Feb-05 18:32N 22°20' E 114°07'1 1.0
2015-Feb-05 17:34N 22°19' E 114°07'13 9.9
2015-Feb-05 16:17N 22°08' E 114°14'3 3.9
2015-Feb-05 15:32N 22°06' E 114°13'20 6.2
2015-Feb-05 12:20N 22°03' E 113°52'911.5
2015-Feb-05 11:33N 22°11' E 113°47'1413.4
2015-Feb-05 10:33N 22°24' E 113°46'1414.2
2015-Feb-05 09:33N 22°38' E 113°42'1111.3
2015-Feb-05 08:33N 22°48' E 113°37'1010.1
2015-Feb-05 07:33N 22°58' E 113°33'3 3.4
2015-Feb-05 06:31N 23°01' E 113°32'0 0.0
2015-Feb-05 05:31N 23°01' E 113°32'0 0.0
2015-Feb-05 04:31N 23°01' E 113°32'0 0.0
2015-Feb-05 03:25N 23°01' E 113°32'0 0.0
2015-Feb-05 02:25N 23°01' E 113°32'0 0.0
2015-Feb-05 01:19N 23°01' E 113°32'0 0.0
2015-Feb-05 00:31N 23°01' E 113°32'0 0.0
2015-Feb-04 23:25N 23°01' E 113°32'0 0.0
2015-Feb-04 22:31N 23°01' E 113°32'0 0.0
2015-Feb-04 21:31N 23°01' E 113°32'4 4.4
2015-Feb-04 20:33N 22°57' E 113°33'10 9.4
2015-Feb-04 19:33N 22°48' E 113°37'1411.2
2015-Feb-04 18:16N 22°35' E 113°43'1115.0
2015-Feb-04 17:33N 22°24' E 113°46'1414.4
2015-Feb-04 16:33N 22°11' E 113°50'6 5.8
2015-Feb-04 15:33N 22°05' E 113°53'1 0.8
2015-Feb-04 14:33N 22°05' E 113°54'0 0.0
2015-Feb-04 13:33N 22°05' E 113°54'0 0.0
2015-Feb-04 12:33N 22°05' E 113°54'0 0.0
2015-Feb-04 11:21N 22°05' E 113°54'0 0.0
2015-Feb-04 10:09N 22°05' E 113°54'0 0.0
2015-Feb-04 09:33N 22°05' E 113°54'0 0.0
2015-Feb-04 08:33N 22°05' E 113°54'4 4.3
2015-Feb-04 07:33N 22°01' E 113°54'16716.5
2015-Feb-03 21:26N 22°46' E 116°48'52116.7
2015-Feb-02 14:16N 29°33' E 122°50'1816.2
2015-Feb-02 13:08N 29°50' E 122°53'4115.6
2015-Feb-02 10:32N 30°31' E 122°60'1616.2
2015-Feb-02 09:33N 30°46' E 122°58'2914.5
2015-Feb-02 07:33N 31°05' E 122°32'1313.5
2015-Feb-02 06:33N 31°07' E 122°16'1514.5
2015-Feb-02 05:33N 31°14' E 122°01'1313.0
2015-Feb-02 04:33N 31°18' E 121°47'7 7.2
2015-Feb-02 03:32N 31°21' E 121°39'0 0.0
2015-Feb-02 02:32N 31°21' E 121°39'0 0.0
2015-Feb-02 01:32N 31°21' E 121°39'0 0.0
2015-Feb-02 00:32N 31°21' E 121°39'0 0.0
2015-Feb-01 23:32N 31°21' E 121°39'0 0.0
2015-Feb-01 22:32N 31°21' E 121°39'0 0.0
2015-Feb-01 21:32N 31°21' E 121°39'0 0.0
2015-Feb-01 20:29N 31°21' E 121°39'0 0.0
2015-Feb-01 19:32N 31°21' E 121°39'0 0.0
2015-Feb-01 18:32N 31°21' E 121°39'0 0.0
2015-Feb-01 17:32N 31°21' E 121°39'0 0.0
2015-Feb-01 16:32N 31°21' E 121°39'0 0.1
2015-Feb-01 15:33N 31°21' E 121°39'5 5.0
2015-Feb-01 14:33N 31°19' E 121°44'1010.0
2015-Feb-01 13:33N 31°16' E 121°55'1010.1
2015-Feb-01 12:33N 31°13' E 122°07'10 9.7
2015-Feb-01 11:33N 31°08' E 122°16'8 8.3
2015-Feb-01 10:33N 31°06' E 122°26'34510.8
2015-Jan-31 02:32N 36°51' E 122°43'4217.3
2015-Jan-31 00:08N 37°32' E 122°40'1117.8
2015-Jan-30 23:32N 37°39' E 122°30'1717.1
2015-Jan-30 22:32N 37°48' E 122°12'19915.1
2015-Jan-30 09:22N 38°51' E 118°11'1012.2
2015-Jan-30 08:33N 38°56' E 118°00'1110.7
2015-Jan-30 07:33N 38°59' E 117°47'0 0.3
2015-Jan-30 06:31N 38°59' E 117°47'0 0.0
2015-Jan-30 05:31N 38°59' E 117°47'0 0.0
2015-Jan-30 04:31N 38°59' E 117°47'0 0.0
2015-Jan-30 03:31N 38°59' E 117°47'0 0.0
2015-Jan-30 02:25N 38°59' E 117°47'0 0.0
2015-Jan-30 01:31N 38°59' E 117°47'0 0.0
2015-Jan-30 00:31N 38°59' E 117°47'0 0.0
2015-Jan-29 23:31N 38°59' E 117°47'0 0.2
2015-Jan-29 22:33N 38°59' E 117°47'1010.3
2015-Jan-29 21:34N 38°57' E 117°60'5 4.6
2015-Jan-29 20:29N 38°58' E 118°06'0 0.1
2015-Jan-29 19:33N 38°58' E 118°06'10 9.1
2015-Jan-29 18:27N 38°51' E 118°16'15315.4
2015-Jan-29 08:32N 38°20' E 121°27'6516.2
2015-Jan-29 04:33N 37°44' E 122°36'45114.0
2015-Jan-27 20:20N 34°03' E 130°42'  

Dump ship's entire track history